createdAt,value
2022-12-14T00:02:30.207Z,54.10
2022-12-14T00:05:02.287Z,59.67
2022-12-14T00:07:34.286Z,64.50
2022-12-14T00:10:06.726Z,62.75
2022-12-14T00:12:38.698Z,63.80
2022-12-14T00:15:10.885Z,59.30
2022-12-14T00:17:42.870Z,64.97
2022-12-14T00:20:15.317Z,63.75
2022-12-14T00:22:47.626Z,60.03
2022-12-14T00:25:19.735Z,65.28
2022-12-14T00:27:51.877Z,62.45
2022-12-14T00:30:23.853Z,61.75
2022-12-14T00:32:55.830Z,63.58
2022-12-14T00:35:27.781Z,65.72
2022-12-14T00:37:59.766Z,69.60
2022-12-14T00:40:31.696Z,68.28
2022-12-14T00:43:04.362Z,64.18
2022-12-14T00:45:36.315Z,69.47
2022-12-14T00:48:08.450Z,70.40
2022-12-14T00:50:41.264Z,63.05
2022-12-14T00:53:13.340Z,59.33
2022-12-14T00:55:49.256Z,61.17
2022-12-14T00:58:24.311Z,57.80
2022-12-14T01:01:08.695Z,57.50
2022-12-14T01:03:41.038Z,49.45
2022-12-14T01:06:18.547Z,51.53
2022-12-14T01:08:50.753Z,45.85
2022-12-14T01:11:22.711Z,50.10
2022-12-14T01:13:56.176Z,49.50
2022-12-14T01:16:28.389Z,46.60
2022-12-14T01:19:01.543Z,49.25
2022-12-14T01:21:34.047Z,49.17
2022-12-14T01:24:07.490Z,48.03
2022-12-14T04:54:02.189Z,43.72
2022-12-14T04:56:42.873Z,45.22
2022-12-14T04:59:15.072Z,41.38
2022-12-14T05:01:52.814Z,42.40
2022-12-14T05:04:33.455Z,39.55
2022-12-14T05:07:20.372Z,42.58
2022-12-14T05:10:10.644Z,41.10
2022-12-14T05:15:49.711Z,41.22
2022-12-14T05:18:22.398Z,47.33
2022-12-14T05:20:54.394Z,46.10
2022-12-14T05:23:26.643Z,46.92
2022-12-14T05:25:58.823Z,44.78
2022-12-14T05:28:30.770Z,45.53
2022-12-14T05:31:02.854Z,45.50
2022-12-14T05:33:35.031Z,43.90
2022-12-14T05:36:07.445Z,43.38
2022-12-14T05:38:39.351Z,41.15
2022-12-14T05:41:11.337Z,47.65
2022-12-14T05:43:43.328Z,52.75
2022-12-14T05:46:15.427Z,57.05
2022-12-14T05:48:49.434Z,59.42
2022-12-14T05:51:21.778Z,48.10
2022-12-14T05:53:53.899Z,50.78
2022-12-14T05:56:26.057Z,47.38
2022-12-14T05:58:58.307Z,45.17
2022-12-14T06:01:30.536Z,46.28
2022-12-14T06:04:02.657Z,61.28
2022-12-14T06:06:34.744Z,75.32
2022-12-14T06:09:08.005Z,73.15
2022-12-14T06:11:41.496Z,71.47
2022-12-14T06:14:14.219Z,74.82
2022-12-14T06:16:47.401Z,64.57
2022-12-14T06:19:19.426Z,56.20
2022-12-14T06:21:51.654Z,63.00
2022-12-14T06:24:23.615Z,63.88
2022-12-14T06:26:55.558Z,57.90
2022-12-14T06:29:28.240Z,54.58
2022-12-14T06:32:01.748Z,51.33
2022-12-14T06:34:38.540Z,49.40
2022-12-14T06:37:12.068Z,49.25
2022-12-14T06:39:45.672Z,51.67
2022-12-14T06:42:24.714Z,51.05
2022-12-14T06:44:56.598Z,52.47
2022-12-14T06:47:28.761Z,46.25
2022-12-14T06:50:00.701Z,45.50
2022-12-14T06:52:32.713Z,45.25
2022-12-14T06:55:05.359Z,47.60
2022-12-14T06:57:37.318Z,53.42
2022-12-14T07:00:13.629Z,62.45
2022-12-14T07:02:45.811Z,59.60
2022-12-14T07:05:17.972Z,65.97
2022-12-14T07:07:50.060Z,58.53
2022-12-14T07:10:22.039Z,56.85
2022-12-14T07:12:54.025Z,62.45
2022-12-14T07:15:26.007Z,79.82
2022-12-14T07:17:58.291Z,89.50
2022-12-14T07:20:30.167Z,78.05
2022-12-14T07:23:02.286Z,67.20
2022-12-14T07:25:34.276Z,54.50
2022-12-14T07:28:06.521Z,56.10
2022-12-14T07:30:38.472Z,58.22
2022-12-14T07:33:10.659Z,52.88
2022-12-14T07:35:42.635Z,54.00
2022-12-14T07:38:14.726Z,51.70
2022-12-14T07:40:46.893Z,61.78
2022-12-14T07:43:19.220Z,62.25
2022-12-14T07:45:51.201Z,63.20
2022-12-14T07:48:23.188Z,56.63
2022-12-14T07:50:55.593Z,57.95
2022-12-14T07:53:27.961Z,52.55
2022-12-14T07:56:05.334Z,52.05
2022-12-14T07:58:37.565Z,49.50
2022-12-14T08:01:09.618Z,51.72
2022-12-14T08:03:43.781Z,50.70
2022-12-14T08:06:17.241Z,63.67
2022-12-14T08:08:50.365Z,68.07
2022-12-14T08:11:29.316Z,65.15
2022-12-14T08:14:03.737Z,61.05
2022-12-14T08:16:35.852Z,60.65
2022-12-14T08:19:07.884Z,58.20
2022-12-14T08:21:41.044Z,68.18
2022-12-14T08:24:14.250Z,80.53
2022-12-14T08:26:49.117Z,63.38
2022-12-14T08:29:22.713Z,65.07
2022-12-14T08:31:58.509Z,62.50
2022-12-14T08:34:30.685Z,60.95
2022-12-14T08:37:02.678Z,56.55
2022-12-14T08:39:34.706Z,57.80
2022-12-14T08:42:06.668Z,55.13
2022-12-14T08:44:38.609Z,55.10
2022-12-14T08:47:10.572Z,53.72
2022-12-14T08:49:42.574Z,49.88
2022-12-14T08:52:14.514Z,65.50
2022-12-14T08:54:46.635Z,51.80
2022-12-14T08:57:18.507Z,62.28
2022-12-14T09:00:05.766Z,56.58
2022-12-14T09:02:38.505Z,55.13
2022-12-14T09:05:11.046Z,49.88
2022-12-14T09:07:43.038Z,52.80
2022-12-14T09:10:15.766Z,49.13
2022-12-14T09:12:47.867Z,51.95
2022-12-14T09:15:19.904Z,50.00
2022-12-14T09:17:51.867Z,50.83
2022-12-14T09:20:23.943Z,61.55
2022-12-14T09:22:56.146Z,52.80
2022-12-14T09:25:28.130Z,49.30
2022-12-14T09:28:00.039Z,47.70
2022-12-14T09:30:31.978Z,45.35
2022-12-14T09:33:04.027Z,46.92
2022-12-14T09:35:35.992Z,43.65
2022-12-14T09:38:08.024Z,47.95
2022-12-14T09:40:43.061Z,44.30
2022-12-14T09:43:43.759Z,47.95
2022-12-14T09:46:35.585Z,45.10
2022-12-14T09:49:34.770Z,49.78
2022-12-14T09:52:13.418Z,44.83
2022-12-14T09:54:49.739Z,45.15
2022-12-14T09:57:25.260Z,41.17
2022-12-14T09:59:57.256Z,43.13
2022-12-14T10:02:46.765Z,44.92
2022-12-14T10:05:34.179Z,46.60
2022-12-14T10:08:45.346Z,48.03
2022-12-14T10:11:32.999Z,48.28
2022-12-14T10:14:31.179Z,41.63
2022-12-14T10:17:30.326Z,45.83
2022-12-14T10:20:17.600Z,40.42
2022-12-14T10:22:52.992Z,41.03
2022-12-14T10:25:37.628Z,40.63
2022-12-14T10:28:21.630Z,41.10
2022-12-14T10:30:58.599Z,40.67
2022-12-14T10:33:31.931Z,44.67
2022-12-14T10:36:26.124Z,41.33
2022-12-14T10:39:02.628Z,43.08
2022-12-14T10:41:43.320Z,39.25
2022-12-14T10:45:09.615Z,44.47
2022-12-14T10:47:52.562Z,37.45
2022-12-14T10:50:50.054Z,39.15
2022-12-14T10:53:33.488Z,37.50
2022-12-14T10:56:25.817Z,38.13
2022-12-14T10:59:26.780Z,36.88
2022-12-14T11:02:04.689Z,38.63
2022-12-14T11:04:45.029Z,38.28
2022-12-14T11:07:19.353Z,38.28
2022-12-14T11:09:51.389Z,42.25
2022-12-14T11:12:28.374Z,37.88
2022-12-14T11:15:03.466Z,39.95
2022-12-14T11:17:43.662Z,41.00
2022-12-14T11:20:21.223Z,39.70
2022-12-14T11:22:59.438Z,44.38
2022-12-14T11:25:43.495Z,37.97
2022-12-14T11:28:15.442Z,41.53
2022-12-14T11:31:33.057Z,37.42
2022-12-14T11:34:31.020Z,36.92
2022-12-14T11:37:25.758Z,35.75
2022-12-14T11:40:05.276Z,34.33
2022-12-14T11:42:37.574Z,36.15
2022-12-14T11:45:31.906Z,32.25
2022-12-14T11:48:16.121Z,32.40
2022-12-14T11:50:49.845Z,35.58
2022-12-14T11:53:23.519Z,32.60
2022-12-14T11:55:59.688Z,28.77
2022-12-14T11:58:54.619Z,30.25
2022-12-14T12:01:27.403Z,30.02
2022-12-14T12:04:00.895Z,30.38
2022-12-14T12:06:33.164Z,32.75
2022-12-14T12:09:30.482Z,30.73
2022-12-14T12:12:02.443Z,36.58
2022-12-14T12:14:38.868Z,36.15
2022-12-14T12:17:27.203Z,41.70
2022-12-14T12:19:59.288Z,41.33
2022-12-14T12:22:32.220Z,38.10
2022-12-14T12:28:12.669Z,33.75
2022-12-14T12:30:51.318Z,33.15
2022-12-14T12:33:30.430Z,32.13
2022-12-14T12:36:05.924Z,31.17
2022-12-14T12:38:49.770Z,33.30
2022-12-14T12:41:26.229Z,30.55
2022-12-14T12:44:49.756Z,30.65
2022-12-14T12:47:41.418Z,30.83
2022-12-14T12:50:21.932Z,31.02
2022-12-14T12:53:02.701Z,30.88
2022-12-14T12:55:42.389Z,32.72
2022-12-14T12:58:27.936Z,31.25
2022-12-14T13:01:05.043Z,31.65
2022-12-14T13:03:46.141Z,31.65
2022-12-14T13:06:24.136Z,32.17
2022-12-14T13:09:02.393Z,31.23
2022-12-14T13:11:39.638Z,32.28
2022-12-14T13:14:29.335Z,33.00
2022-12-14T13:17:06.106Z,34.40
2022-12-14T13:19:54.761Z,32.97
2022-12-14T13:22:30.210Z,35.40
2022-12-14T13:25:57.757Z,36.97
2022-12-14T13:28:47.793Z,35.38
2022-12-14T13:31:29.024Z,36.78
2022-12-14T13:34:23.893Z,35.80
2022-12-14T13:37:23.323Z,34.83
2022-12-14T13:40:13.981Z,35.67
2022-12-14T13:45:32.808Z,36.90
2022-12-14T13:48:09.478Z,35.90
2022-12-14T13:50:56.081Z,38.83
2022-12-14T13:53:35.381Z,38.65
2022-12-14T13:56:08.934Z,38.45
2022-12-14T13:58:43.525Z,40.08
2022-12-14T14:01:54.811Z,39.67
2022-12-14T14:04:31.804Z,39.88
2022-12-14T14:07:22.697Z,41.95
2022-12-14T14:10:05.033Z,42.65
2022-12-14T14:12:39.693Z,43.72
2022-12-14T14:15:32.935Z,39.25
2022-12-14T14:18:16.079Z,38.63
2022-12-14T14:21:14.213Z,38.50
2022-12-14T14:23:59.744Z,37.65
2022-12-14T14:26:34.461Z,37.47
2022-12-14T14:29:23.846Z,39.75
2022-12-14T14:31:57.406Z,40.88
2022-12-14T14:34:45.137Z,44.65
2022-12-14T14:37:20.203Z,43.20
2022-12-14T14:40:18.756Z,44.08
2022-12-14T14:43:06.773Z,42.03
2022-12-14T14:45:50.706Z,42.00
2022-12-14T14:48:34.761Z,43.55
2022-12-14T14:51:21.303Z,45.38
2022-12-14T14:55:10.698Z,48.13
2022-12-14T14:57:38.784Z,49.92
2022-12-14T15:00:11.590Z,49.47
2022-12-14T15:02:44.703Z,49.17
2022-12-14T15:08:29.767Z,50.70
2022-12-14T15:11:12.342Z,49.55
2022-12-14T15:13:51.998Z,53.08
2022-12-14T15:16:29.776Z,50.73
2022-12-14T15:19:26.814Z,51.08
2022-12-14T15:22:14.448Z,53.20
2022-12-14T15:24:49.959Z,57.58
2022-12-14T15:27:32.477Z,56.67
2022-12-14T15:30:13.598Z,50.22
2022-12-14T15:32:59.602Z,50.15
2022-12-14T15:35:38.469Z,47.42
2022-12-14T15:38:20.897Z,47.95
2022-12-14T15:41:13.335Z,47.63
2022-12-14T15:43:47.109Z,42.38
2022-12-14T15:46:32.149Z,43.40
2022-12-14T15:49:09.187Z,44.00
2022-12-14T15:51:43.941Z,44.30
2022-12-14T15:54:21.390Z,41.90
2022-12-14T15:57:00.813Z,42.17
2022-12-14T15:59:36.181Z,40.80
2022-12-14T16:02:38.430Z,42.95
2022-12-14T16:05:17.263Z,42.50
2022-12-14T16:07:54.552Z,40.97
2022-12-14T16:10:35.064Z,40.80
2022-12-14T16:15:47.712Z,41.33
2022-12-14T16:18:22.116Z,40.88
2022-12-14T16:21:01.021Z,39.13
2022-12-14T16:23:39.244Z,41.70
2022-12-14T16:26:15.440Z,43.60
2022-12-14T16:28:48.040Z,41.33
2022-12-14T16:31:22.709Z,45.42
2022-12-14T16:34:10.037Z,48.50
2022-12-14T16:36:48.180Z,43.97
2022-12-14T16:39:40.126Z,42.58
2022-12-14T16:42:25.514Z,42.05
2022-12-14T16:44:57.637Z,48.90
2022-12-14T16:47:35.312Z,46.50
2022-12-14T16:53:25.531Z,42.97
2022-12-14T16:56:15.571Z,43.42
2022-12-14T16:58:59.354Z,45.38
2022-12-14T17:01:45.950Z,49.05
2022-12-14T17:04:20.164Z,46.78
2022-12-14T17:06:54.301Z,55.22
2022-12-14T17:09:29.298Z,50.50
2022-12-14T17:12:10.213Z,51.30
2022-12-14T17:14:49.061Z,47.95
2022-12-14T17:17:33.748Z,48.53
2022-12-14T17:20:13.569Z,52.45
2022-12-14T17:22:49.681Z,48.00
2022-12-14T17:25:21.946Z,50.38
2022-12-14T17:27:54.634Z,45.13
2022-12-14T17:30:26.839Z,50.42
2022-12-14T17:32:59.023Z,53.03
2022-12-14T17:35:32.590Z,53.25
2022-12-14T17:38:13.453Z,48.75
2022-12-14T17:40:47.094Z,46.17
2022-12-14T17:43:22.495Z,55.50
2022-12-14T17:45:54.878Z,51.28
2022-12-14T17:48:28.623Z,67.55
2022-12-14T17:51:01.639Z,61.22
2022-12-14T17:53:34.971Z,53.70
2022-12-14T17:56:07.114Z,55.13
2022-12-14T17:58:39.239Z,48.13
2022-12-14T18:01:16.272Z,55.65
2022-12-14T18:03:48.900Z,60.45
2022-12-14T18:06:20.879Z,54.63
2022-12-14T18:08:52.870Z,49.28
2022-12-14T18:11:27.334Z,45.67
2022-12-14T18:13:59.675Z,42.83
2022-12-14T18:16:31.739Z,41.28
2022-12-14T18:19:03.882Z,40.33
2022-12-14T18:21:35.886Z,43.80
2022-12-14T18:24:12.982Z,45.53
2022-12-14T18:26:46.292Z,45.85
2022-12-14T18:29:19.975Z,43.17
2022-12-14T18:31:52.527Z,44.67
2022-12-14T18:34:24.779Z,45.38
2022-12-14T18:36:56.782Z,43.70
2022-12-14T18:39:28.784Z,49.42
2022-12-14T18:42:00.652Z,49.45
2022-12-14T18:44:32.642Z,47.63
2022-12-14T18:47:20.753Z,48.22
2022-12-14T18:49:56.693Z,43.40
2022-12-14T18:52:28.881Z,43.20
2022-12-14T18:55:01.021Z,42.78
2022-12-14T18:57:33.017Z,41.83
2022-12-14T19:00:05.480Z,40.65
2022-12-14T19:02:37.612Z,42.10
2022-12-14T19:05:10.740Z,39.00
2022-12-14T19:07:43.738Z,38.05
2022-12-14T19:10:21.773Z,42.70
2022-12-14T19:12:54.218Z,39.13
2022-12-14T19:15:32.784Z,42.47
2022-12-14T19:18:04.855Z,43.85
2022-12-14T19:20:36.972Z,40.00
2022-12-14T19:23:15.722Z,40.58
2022-12-14T19:25:48.086Z,41.72
2022-12-14T19:28:32.056Z,39.45
2022-12-14T19:31:05.579Z,41.70
2022-12-14T19:33:38.086Z,42.17
2022-12-14T19:36:10.592Z,42.70
2022-12-14T19:38:42.603Z,44.83
2022-12-14T19:41:17.950Z,44.97
2022-12-14T19:43:50.198Z,43.17
2022-12-14T19:46:24.156Z,42.97
2022-12-14T19:48:57.770Z,42.65
2022-12-14T19:51:30.813Z,45.42
2022-12-14T19:54:04.235Z,44.13
2022-12-14T19:56:36.356Z,46.38
2022-12-14T19:59:08.357Z,47.50
2022-12-14T20:01:44.816Z,51.72
2022-12-14T20:04:19.980Z,53.38
2022-12-14T20:06:51.985Z,53.70
2022-12-14T20:09:24.167Z,51.67
2022-12-14T20:11:56.274Z,50.55
2022-12-14T20:14:28.440Z,46.72
2022-12-14T20:17:00.441Z,50.08
2022-12-14T20:19:32.446Z,48.55
2022-12-14T20:22:05.391Z,46.30
2022-12-14T20:24:38.572Z,48.00
2022-12-14T20:27:11.034Z,46.67
2022-12-14T20:29:43.504Z,50.40
2022-12-14T20:32:15.454Z,50.90
2022-12-14T20:34:47.415Z,58.67
2022-12-14T20:37:19.442Z,55.42
2022-12-14T20:39:51.398Z,56.03
2022-12-14T20:42:25.971Z,55.25
2022-12-14T20:45:01.324Z,54.80
2022-12-14T20:47:37.386Z,49.95
2022-12-14T20:50:12.250Z,49.28
2022-12-14T20:52:44.483Z,53.30
2022-12-14T20:55:21.410Z,48.38
2022-12-14T20:57:54.630Z,50.00
2022-12-14T21:00:26.997Z,49.72
2022-12-14T21:02:59.127Z,47.97
2022-12-14T21:05:31.125Z,61.00
2022-12-14T21:08:03.102Z,52.67
2022-12-14T21:10:35.830Z,59.28
2022-12-14T21:13:08.156Z,56.22
2022-12-14T21:15:40.186Z,55.67
2022-12-14T21:18:12.172Z,59.33
2022-12-14T21:20:44.757Z,57.78
2022-12-14T21:23:21.285Z,52.53
2022-12-14T21:25:53.291Z,55.28
2022-12-14T21:28:30.393Z,57.53
2022-12-14T21:31:05.748Z,53.80
2022-12-14T21:33:37.692Z,47.95
2022-12-14T21:36:10.426Z,48.10
2022-12-14T21:38:42.374Z,50.42
2022-12-14T21:41:32.682Z,53.50
2022-12-14T21:44:04.948Z,49.72
2022-12-14T21:46:37.499Z,54.50
2022-12-14T21:49:10.053Z,52.33
2022-12-14T21:51:42.209Z,49.50
2022-12-14T21:54:15.793Z,54.13
2022-12-14T21:57:06.552Z,48.97
2022-12-14T21:59:46.706Z,46.75
2022-12-14T22:02:25.004Z,50.05
2022-12-14T22:04:57.280Z,51.50
2022-12-14T22:07:31.749Z,50.40
2022-12-14T22:10:04.328Z,48.50
2022-12-14T22:12:36.289Z,48.85
2022-12-14T22:15:08.927Z,51.00
2022-12-14T22:17:40.894Z,56.83
2022-12-14T22:20:13.626Z,49.85
2022-12-14T22:22:45.627Z,46.38
2022-12-14T22:25:17.597Z,45.25
2022-12-14T22:27:49.636Z,43.10
2022-12-14T22:30:24.004Z,44.10
2022-12-14T22:32:59.125Z,47.17
2022-12-14T22:35:31.148Z,45.35
2022-12-14T22:38:03.127Z,47.72
2022-12-14T22:40:35.392Z,44.15
2022-12-14T22:43:07.334Z,43.58
2022-12-14T22:45:39.328Z,44.42
2022-12-14T22:48:11.273Z,46.72
2022-12-14T22:50:43.831Z,46.17
2022-12-14T22:53:15.841Z,45.95
2022-12-14T22:55:49.724Z,47.28
2022-12-14T22:58:23.050Z,44.40
2022-12-14T23:00:58.216Z,45.38
2022-12-14T23:03:30.783Z,45.95
2022-12-14T23:06:03.216Z,41.38
2022-12-14T23:08:35.221Z,43.75
2022-12-14T23:11:25.718Z,41.10
2022-12-14T23:14:16.524Z,44.70
2022-12-14T23:17:07.026Z,44.33
2022-12-14T23:22:56.002Z,40.95
2022-12-14T23:25:46.764Z,41.85
2022-12-14T23:28:37.430Z,44.53
2022-12-14T23:31:28.231Z,45.97
2022-12-14T23:34:19.026Z,46.22
2022-12-14T23:37:10.504Z,46.35
2022-12-14T23:40:03.459Z,46.33
2022-12-14T23:42:54.031Z,48.63
2022-12-14T23:48:35.105Z,44.63
2022-12-14T23:54:15.985Z,41.15
2022-12-14T23:59:56.721Z,31.65
